Time;durP1;ratioP1;P1;durP2;ratioP2;P2;SDS_P1;SDS_P2;PMS_P1;PMS_P2;Temp;Humidity;BMP_temperature;BMP_pressure;BME280_temperature;BME280_humidity;BME280_pressure;Samples;Min_cycle;Max_cycle;Signal;HPM_P1;HPM_P2
2022/02/09 00:02:05;;;;;;;5.47;3.00;;;10.00;99.30;;;;;;5092973;28;20465;-60
2022/02/09 00:04:42;;;;;;;6.47;3.00;;;10.00;99.40;;;;;;5092908;28;20419;-60
2022/02/09 00:07:18;;;;;;;5.00;3.30;;;9.90;99.50;;;;;;5092792;28;20122;-60
2022/02/09 00:09:45;;;;;;;3.38;2.45;;;10.00;99.50;;;;;;5079493;28;20013;-60
2022/02/09 00:28:57;;;;;;;6.45;2.60;;;10.00;99.30;;;;;;5092640;28;20514;-60
2022/02/09 00:37:05;;;;;;;3.60;2.05;;;10.00;99.10;;;;;;5092956;28;20063;-60
2022/02/09 00:42:18;;;;;;;2.47;1.33;;;10.00;99.00;;;;;;5092709;28;20028;-60
2022/02/09 01:39:16;;;;;;;6.45;5.30;;;9.90;99.90;;;;;;5095758;28;20038;-60
2022/02/09 01:43:14;;;;;;;5.43;4.80;;;9.90;99.90;;;;;;5094326;28;20028;-60
2022/02/09 01:55:51;;;;;;;6.03;5.07;;;9.80;99.90;;;;;;5095153;28;20063;-60
2022/02/09 01:58:19;;;;;;;5.32;4.72;;;9.80;99.90;;;;;;5110577;28;20056;-60
2022/02/09 02:00:45;;;;;;;5.47;4.30;;;9.80;99.90;;;;;;5111000;28;20052;-61
2022/02/09 02:03:11;;;;;;;5.03;4.53;;;9.80;99.90;;;;;;5094924;28;20079;-60
2022/02/09 02:05:36;;;;;;;4.95;4.28;;;9.80;99.90;;;;;;5095021;28;20043;-61
2022/02/09 02:08:04;;;;;;;4.57;4.18;;;9.80;99.90;;;;;;5094927;28;20020;-60
2022/02/09 02:10:49;;;;;;;5.07;4.38;;;9.80;99.90;;;;;;5082541;28;20025;-60
2022/02/09 02:18:37;;;;;;;4.30;3.90;;;9.80;99.90;;;;;;5073514;28;20024;-60
2022/02/09 02:21:25;;;;;;;5.38;3.92;;;9.80;99.90;;;;;;5074316;28;20025;-60
2022/02/09 02:37:16;;;;;;;4.70;3.60;;;9.70;99.90;;;;;;5094378;28;20036;-60
2022/02/09 03:17:34;;;;;;;4.22;3.50;;;9.70;99.90;;;;;;5015703;28;20045;-60
2022/02/09 03:20:06;;;;;;;6.50;4.18;;;9.70;99.90;;;;;;5031011;28;20072;-60
2022/02/09 03:22:50;;;;;;;6.13;3.72;;;9.60;99.90;;;;;;5031160;28;20037;-60
2022/02/09 03:30:57;;;;;;;6.38;5.22;;;9.60;99.90;;;;;;5073042;28;20024;-60
2022/02/09 03:55:21;;;;;;;10.90;8.38;;;9.40;99.90;;;;;;5073167;28;20024;-60
2022/02/09 03:57:47;;;;;;;9.30;8.15;;;9.40;99.90;;;;;;5072775;28;20016;-60
2022/02/09 04:00:19;;;;;;;10.02;7.85;;;9.30;99.90;;;;;;5072642;28;20058;-60
2022/02/09 04:02:50;;;;;;;10.20;8.63;;;9.30;99.90;;;;;;5072780;28;20494;-60
2022/02/09 04:05:17;;;;;;;10.10;9.00;;;9.30;99.90;;;;;;5072484;28;20025;-60
2022/02/09 04:07:43;;;;;;;11.05;9.07;;;9.30;99.90;;;;;;5072703;28;20021;-60
2022/02/09 04:10:14;;;;;;;9.65;8.75;;;9.30;99.90;;;;;;5072803;28;20016;-60
2022/02/09 04:12:50;;;;;;;10.98;9.88;;;9.30;99.90;;;;;;5072778;28;20056;-61
2022/02/09 04:15:45;;;;;;;11.10;9.65;;;9.30;99.90;;;;;;5072520;28;20021;-60
2022/02/09 04:18:36;;;;;;;11.55;10.38;;;9.20;99.90;;;;;;5072438;28;20045;-61
2022/02/09 04:37:24;;;;;;;11.48;10.38;;;9.20;99.90;;;;;;5072469;28;20499;-60
2022/02/09 04:39:55;;;;;;;12.52;11.23;;;9.10;99.90;;;;;;5072402;28;20090;-60
2022/02/09 04:45:35;;;;;;;12.80;11.50;;;9.20;99.90;;;;;;5076077;28;20123;-60
2022/02/09 04:48:24;;;;;;;13.85;12.35;;;9.10;99.90;;;;;;5076135;28;20020;-60
2022/02/09 04:56:29;;;;;;;15.70;13.85;;;9.10;99.90;;;;;;5076047;28;20035;-60
2022/02/09 05:02:01;;;;;;;15.40;13.15;;;9.10;99.90;;;;;;5075630;28;20025;-59
2022/02/09 05:04:59;;;;;;;14.50;13.00;;;9.00;99.90;;;;;;5075747;28;20033;-60
2022/02/09 05:26:01;;;;;;;;;;;;;;;;;;;;;
2022/02/09 05:28:27;;;;;;;15.52;13.93;;;9.00;99.90;;;;;;5075425;28;20027;-60
2022/02/09 05:30:52;;;;;;;16.85;13.32;;;9.00;99.90;;;;;;5075348;28;20107;-60
2022/02/09 05:33:19;;;;;;;15.55;13.82;;;8.90;99.90;;;;;;5074041;28;20107;-60
2022/02/09 05:35:45;;;;;;;15.68;13.68;;;9.00;99.90;;;;;;5075432;28;20108;-60
2022/02/09 05:38:12;;;;;;;17.75;12.63;;;8.90;99.90;;;;;;5075205;28;20052;-60
2022/02/09 05:40:51;;;;;;;12.40;11.18;;;8.90;99.90;;;;;;5075111;28;20020;-61
2022/02/09 05:43:17;;;;;;;12.32;11.02;;;8.90;99.90;;;;;;5075179;28;20089;-60
2022/02/09 05:46:25;;;;;;;13.30;10.95;;;8.80;99.90;;;;;;5075145;28;20020;-59
2022/02/09 05:51:52;;;;;;;11.63;10.43;;;8.80;99.90;;;;;;5051702;28;20035;-60
2022/02/09 05:54:40;;;;;;;11.32;10.20;;;8.80;99.90;;;;;;5075006;28;20084;-60
2022/02/09 05:57:25;;;;;;;11.23;9.27;;;8.80;99.90;;;;;;5074848;28;20021;-60
2022/02/09 05:59:50;;;;;;;10.57;8.85;;;8.80;99.90;;;;;;5074757;28;20020;-59
2022/02/09 06:02:16;;;;;;;10.30;9.20;;;8.80;99.90;;;;;;5090179;28;20036;-60
2022/02/09 06:04:42;;;;;;;10.05;9.02;;;8.80;99.90;;;;;;5074861;28;20020;-59
2022/02/09 06:07:08;;;;;;;9.20;8.18;;;8.80;99.90;;;;;;5074727;28;20411;-60
2022/02/09 06:13:42;;;;;;;9.15;8.15;;;8.80;99.90;;;;;;5068617;28;20039;-60
2022/02/09 06:15:58;;;;;;;10.43;8.50;;;8.80;99.90;;;;;;5066309;28;20618;-60
2022/02/09 06:21:02;;;;;;;8.25;7.45;;;8.70;99.90;;;;;;5074548;28;20090;-60
2022/02/09 06:23:34;;;;;;;7.95;7.15;;;8.80;99.90;;;;;;5073577;28;20028;-60
2022/02/09 06:26:04;;;;;;;8.75;7.28;;;8.80;99.90;;;;;;5073722;28;20029;-59
2022/02/09 06:28:29;;;;;;;8.38;7.47;;;8.80;99.90;;;;;;5073007;28;20051;-60
2022/02/09 06:30:59;;;;;;;9.63;8.63;;;8.80;99.90;;;;;;5072174;28;20528;-60
2022/02/09 06:33:25;;;;;;;9.10;8.10;;;8.80;99.90;;;;;;5073925;28;20028;-60
2022/02/09 06:35:53;;;;;;;9.20;8.20;;;8.70;99.90;;;;;;5074122;28;20111;-60
2022/02/09 06:38:44;;;;;;;9.02;7.88;;;8.80;99.90;;;;;;5072380;28;20115;-60
2022/02/09 06:41:10;;;;;;;9.25;7.47;;;8.70;99.90;;;;;;5073116;28;20097;-60
2022/02/09 06:43:35;;;;;;;9.35;7.72;;;8.70;99.90;;;;;;5073120;28;20025;-59
2022/02/09 06:46:25;;;;;;;9.75;8.20;;;8.70;99.90;;;;;;5072590;28;20052;-60
2022/02/09 06:48:51;;;;;;;10.93;8.07;;;8.70;99.90;;;;;;5073800;28;20017;-60
2022/02/09 06:51:26;;;;;;;11.13;8.95;;;8.70;99.90;;;;;;5073679;28;20080;-60
2022/02/09 06:54:22;;;;;;;8.98;7.68;;;8.60;99.90;;;;;;5073544;28;20024;-60
2022/02/09 06:59:28;;;;;;;8.30;7.47;;;8.60;99.90;;;;;;5073879;28;20032;-60
2022/02/09 07:02:08;;;;;;;8.98;8.07;;;8.60;99.90;;;;;;5072166;28;20055;-60
2022/02/09 07:04:35;;;;;;;;;;;8.60;99.90;;;;;;5073100;28;20017;-60
2022/02/09 07:07:01;;;;;;;8.02;7.13;;;8.50;99.90;;;;;;5071912;28;20006;-60
2022/02/09 07:09:37;;;;;;;8.70;7.78;;;8.50;99.90;;;;;;5070477;28;20108;-60
2022/02/09 07:12:02;;;;;;;9.23;7.88;;;8.50;99.90;;;;;;5071317;28;20391;-60
2022/02/09 07:14:54;;;;;;;9.77;7.15;;;8.50;99.90;;;;;;5071700;28;20016;-60
2022/02/09 07:17:19;;;;;;;10.10;7.30;;;8.60;99.90;;;;;;5072023;28;20037;-60
2022/02/09 07:20:31;;;;;;;7.57;6.85;;;8.50;99.90;;;;;;5088855;28;20472;-61
2022/02/09 07:28:28;;;;;;;10.65;9.18;;;8.50;99.90;;;;;;5073512;28;20016;-60
2022/02/09 07:30:54;;;;;;;9.65;8.57;;;8.60;99.90;;;;;;5073123;28;20112;-63
2022/02/09 07:33:33;;;;;;;11.18;9.98;;;8.60;99.90;;;;;;5073035;28;20025;-60
2022/02/09 07:35:59;;;;;;;10.25;9.23;;;8.60;99.90;;;;;;5087937;28;20403;-60
2022/02/09 07:38:43;;;;;;;10.30;8.85;;;8.60;99.90;;;;;;5071662;28;20051;-60
2022/02/09 07:41:10;;;;;;;10.70;9.60;;;8.60;99.90;;;;;;5073018;28;20029;-60
2022/02/09 07:44:03;;;;;;;12.90;9.75;;;8.60;99.90;;;;;;5071584;28;20020;-60
2022/02/09 07:46:41;;;;;;;11.55;9.73;;;8.60;99.90;;;;;;5071622;28;20383;-60
2022/02/09 07:49:10;;;;;;;12.88;9.98;;;8.60;99.90;;;;;;5072992;28;20069;-60
2022/02/09 07:51:53;;;;;;;13.18;10.88;;;8.60;99.90;;;;;;5072872;28;20074;-60
2022/02/09 07:54:39;;;;;;;11.73;10.40;;;8.60;99.90;;;;;;5072720;28;20397;-60
2022/02/09 07:57:05;;;;;;;12.93;11.20;;;8.60;99.90;;;;;;5072765;28;20031;-60
2022/02/09 07:59:31;;;;;;;12.82;11.48;;;8.60;99.90;;;;;;5071003;28;20047;-60
2022/02/09 08:01:56;;;;;;;13.77;12.10;;;8.60;99.90;;;;;;5070452;28;20052;-60
2022/02/09 08:04:22;;;;;;;15.70;12.13;;;8.60;99.90;;;;;;5070065;28;20426;-60
2022/02/09 08:06:57;;;;;;;15.35;12.95;;;8.60;99.90;;;;;;5071011;28;20035;-60
2022/02/09 08:09:43;;;;;;;17.08;12.95;;;8.70;99.90;;;;;;5067779;28;20013;-60
2022/02/09 08:12:53;;;;;;;16.95;13.60;;;8.70;99.90;;;;;;5072339;28;20028;-60
2022/02/09 08:28:46;;;;;;;18.13;14.15;;;8.70;99.90;;;;;;5075311;28;20025;-59
2022/02/09 08:33:40;;;;;;;17.20;13.07;;;8.70;99.90;;;;;;5076431;28;20476;-60
2022/02/09 08:36:06;;;;;;;16.05;13.32;;;8.70;99.90;;;;;;5076180;28;20035;-60
2022/02/09 08:38:44;;;;;;;;;;;;;;;;;;;;;
2022/02/09 08:41:10;;;;;;;17.65;13.98;;;8.70;99.90;;;;;;5076223;28;20020;-60
2022/02/09 08:43:37;;;;;;;15.93;13.50;;;8.70;99.90;;;;;;5076131;28;20036;-60
2022/02/09 08:46:03;;;;;;;19.48;13.18;;;8.80;99.90;;;;;;5076194;28;20107;-60
2022/02/09 08:48:28;;;;;;;16.55;13.00;;;8.70;99.90;;;;;;5076079;28;20104;-59
2022/02/09 08:50:54;;;;;;;14.00;12.32;;;8.70;99.90;;;;;;5075871;28;20376;-59
2022/02/09 08:53:21;;;;;;;15.82;13.25;;;8.70;99.90;;;;;;5075991;28;20083;-60
2022/02/09 08:55:47;;;;;;;14.38;12.73;;;8.70;99.90;;;;;;5075958;28;20045;-60
2022/02/09 08:58:40;;;;;;;13.70;12.07;;;8.80;99.90;;;;;;5076094;28;20040;-60
2022/02/09 09:01:37;;;;;;;15.82;12.82;;;8.90;99.90;;;;;;5075680;28;20021;-60
2022/02/09 09:04:17;;;;;;;13.32;11.95;;;8.80;99.90;;;;;;5075486;28;20035;-60
2022/02/09 09:07:21;;;;;;;15.38;11.77;;;8.80;99.90;;;;;;5075653;28;20028;-60
2022/02/09 09:10:27;;;;;;;13.93;11.80;;;8.80;99.90;;;;;;5088120;28;20059;-59
2022/02/09 09:41:34;;;;;;;13.25;10.68;;;8.90;99.90;;;;;;5075873;28;20039;-59
2022/02/09 10:31:29;;;;;;;12.95;10.43;;;9.40;99.90;;;;;;5074412;28;20030;-59
2022/02/09 10:34:00;;;;;;;13.70;11.38;;;9.40;99.90;;;;;;5074021;28;20032;-60
2022/02/09 10:36:26;;;;;;;11.65;10.45;;;9.50;99.90;;;;;;5074237;28;20028;-59
2022/02/09 10:39:08;;;;;;;11.98;10.13;;;9.50;99.90;;;;;;5072721;28;20100;-59
2022/02/09 10:41:42;;;;;;;14.23;10.70;;;9.60;99.90;;;;;;5074177;28;20024;-59
2022/02/09 10:44:11;;;;;;;13.45;10.55;;;9.60;99.90;;;;;;5073792;28;20052;-59
2022/02/09 10:46:47;;;;;;;10.70;9.60;;;9.60;99.90;;;;;;5073976;28;20017;-59
2022/02/09 10:49:14;;;;;;;12.18;10.35;;;9.70;99.90;;;;;;5072309;28;20036;-59
2022/02/09 10:54:23;;;;;;;12.80;10.38;;;9.70;99.90;;;;;;5071889;28;20020;-59
2022/02/09 10:56:57;;;;;;;13.75;9.73;;;9.70;99.90;;;;;;5072086;28;20496;-59
2022/02/09 10:59:27;;;;;;;11.80;8.88;;;9.70;99.90;;;;;;5071859;28;20545;-59
2022/02/09 11:02:29;;;;;;;10.00;8.73;;;9.70;99.90;;;;;;5072262;28;20063;-60
2022/02/09 11:04:56;;;;;;;11.73;8.63;;;9.80;99.90;;;;;;5031254;28;20053;-59
2022/02/09 11:07:22;;;;;;;10.80;8.15;;;9.70;99.90;;;;;;5071482;28;20473;-60
2022/02/09 11:10:19;;;;;;;10.52;8.75;;;9.80;99.90;;;;;;5073198;28;20495;-60
2022/02/09 11:12:45;;;;;;;9.77;8.35;;;9.90;99.90;;;;;;5073003;28;20040;-60
2022/02/09 11:15:17;;;;;;;9.27;8.18;;;9.80;99.90;;;;;;5073173;28;20550;-59
2022/02/09 11:17:46;;;;;;;10.23;7.90;;;9.90;99.90;;;;;;5072491;28;20059;-59
2022/02/09 11:20:19;;;;;;;9.68;8.05;;;9.90;99.90;;;;;;5071849;28;20016;-59
2022/02/09 11:22:46;;;;;;;10.27;9.07;;;9.90;99.90;;;;;;5070193;28;20579;-59
2022/02/09 11:25:43;;;;;;;9.10;7.65;;;9.90;99.90;;;;;;5075642;28;20025;-60
2022/02/09 11:28:34;;;;;;;10.02;8.10;;;9.90;99.90;;;;;;5070143;28;20012;-59
2022/02/09 11:31:00;;;;;;;8.60;7.68;;;9.90;99.90;;;;;;5069422;28;20013;-59
2022/02/09 11:33:35;;;;;;;9.77;8.15;;;9.90;99.90;;;;;;5073144;28;20499;-59
2022/02/09 11:36:15;;;;;;;8.77;7.80;;;9.90;99.90;;;;;;5072824;28;20464;-59
2022/02/09 11:38:46;;;;;;;8.88;7.97;;;9.90;99.90;;;;;;5088688;28;20039;-59
2022/02/09 11:41:15;;;;;;;8.02;6.88;;;9.90;99.90;;;;;;5073049;28;20073;-59
2022/02/09 11:44:10;;;;;;;8.82;7.70;;;9.90;99.90;;;;;;5072825;28;20021;-59
2022/02/09 11:46:48;;;;;;;9.60;8.60;;;10.00;99.90;;;;;;5072477;28;20029;-59
2022/02/09 11:49:48;;;;;;;8.60;7.32;;;10.00;99.90;;;;;;5072248;28;20021;-59
2022/02/09 11:52:19;;;;;;;10.90;7.82;;;10.00;99.90;;;;;;5084636;28;20086;-59
2022/02/09 12:00:32;;;;;;;9.60;7.70;;;10.00;99.90;;;;;;5070885;28;20028;-59
2022/02/09 12:09:09;;;;;;;9.73;7.32;;;10.10;99.90;;;;;;5072687;28;20090;-59
2022/02/09 12:11:40;;;;;;;8.90;7.53;;;10.20;99.90;;;;;;5055389;28;20020;-59
2022/02/09 12:16:51;;;;;;;9.50;7.05;;;10.30;99.90;;;;;;5069940;28;20037;-59
2022/02/09 12:19:29;;;;;;;11.95;7.50;;;10.40;99.90;;;;;;5070783;28;20031;-59
2022/02/09 12:22:13;;;;;;;10.68;7.03;;;10.30;99.90;;;;;;5070559;28;20020;-59
2022/02/09 12:24:41;;;;;;;7.80;6.45;;;10.30;99.90;;;;;;5069183;28;20484;-59
2022/02/09 12:27:08;;;;;;;10.35;7.32;;;10.30;99.90;;;;;;5070482;28;20028;-59
2022/02/09 12:29:40;;;;;;;10.20;7.47;;;10.30;99.90;;;;;;5072476;28;20024;-59
2022/02/09 12:32:14;;;;;;;9.82;7.07;;;10.30;99.90;;;;;;5072520;28;20024;-59
2022/02/09 12:34:44;;;;;;;9.75;7.28;;;10.30;99.90;;;;;;5072579;28;20130;-59
2022/02/09 12:37:13;;;;;;;;;;;10.30;99.90;;;;;;5072640;28;20021;-60
2022/02/09 12:39:52;;;;;;;8.00;7.10;;;10.30;99.90;;;;;;5072348;28;19994;-59
2022/02/09 12:42:19;;;;;;;8.40;6.68;;;10.30;99.90;;;;;;5072129;28;20028;-59
2022/02/09 12:45:03;;;;;;;7.82;6.45;;;10.30;99.90;;;;;;5071047;28;20067;-59
2022/02/09 12:47:31;;;;;;;8.27;6.47;;;10.40;99.90;;;;;;5071101;28;20021;-59
2022/02/09 12:50:18;;;;;;;10.18;8.13;;;10.30;99.90;;;;;;5072104;28;20016;-60
2022/02/09 12:52:46;;;;;;;10.38;7.72;;;10.30;99.90;;;;;;5071117;28;20016;-59
2022/02/09 12:55:18;;;;;;;8.40;7.00;;;10.30;99.90;;;;;;5070164;28;20025;-59
2022/02/09 12:57:49;;;;;;;9.82;7.72;;;10.40;99.90;;;;;;5070237;28;20032;-60
2022/02/09 13:00:22;;;;;;;8.20;7.28;;;10.40;99.90;;;;;;5068172;28;20029;-59
2022/02/09 13:03:04;;;;;;;8.30;6.60;;;10.40;99.90;;;;;;5073360;28;20028;-59
2022/02/09 13:05:31;;;;;;;8.57;7.75;;;10.40;99.90;;;;;;5074038;28;20062;-60
2022/02/09 13:08:00;;;;;;;8.70;7.80;;;10.40;99.90;;;;;;5074059;28;20040;-60
2022/02/09 13:10:29;;;;;;;7.83;7.03;;;10.40;99.90;;;;;;5084119;28;20369;-59
2022/02/09 13:12:58;;;;;;;9.90;8.55;;;10.40;99.90;;;;;;5071388;28;20021;-59
2022/02/09 13:15:31;;;;;;;8.68;7.78;;;10.40;99.90;;;;;;5073994;28;20099;-60
2022/02/09 13:52:47;;;;;;;9.55;8.27;;;10.40;99.90;;;;;;5075096;28;20471;-59
2022/02/09 14:07:53;;;;;;;12.85;9.18;;;10.50;99.90;;;;;;5068487;28;20028;-60
2022/02/09 14:13:30;;;;;;;10.13;8.98;;;10.50;99.90;;;;;;5048362;28;20498;-60
2022/02/09 14:35:17;;;;;;;11.45;10.07;;;10.50;99.90;;;;;;5069363;28;20495;-59
2022/02/09 14:51:38;;;;;;;12.93;11.20;;;10.50;99.90;;;;;;5069502;28;20468;-60
2022/02/09 14:59:19;;;;;;;11.65;9.77;;;10.50;99.90;;;;;;5069094;28;20035;-59
2022/02/09 15:01:54;;;;;;;12.13;9.73;;;10.50;99.90;;;;;;5073042;28;20020;-60
2022/02/09 15:04:35;;;;;;;11.95;9.32;;;10.50;99.90;;;;;;5072976;28;20388;-59
2022/02/09 15:09:49;;;;;;;10.55;8.20;;;10.60;99.90;;;;;;5071658;28;20021;-60
2022/02/09 15:20:40;;;;;;;9.52;7.13;;;10.70;99.90;;;;;;5059393;28;20021;-59
2022/02/09 15:23:00;;;;;;;8.13;6.60;;;10.70;99.90;;;;;;5065695;28;20029;-60
2022/02/09 15:25:56;;;;;;;7.15;6.45;;;10.70;99.90;;;;;;5065380;28;20104;-59
2022/02/09 15:28:22;;;;;;;7.90;6.68;;;10.70;99.90;;;;;;5057149;28;20425;-60
2022/02/09 15:31:01;;;;;;;8.07;6.18;;;10.70;99.90;;;;;;5037519;28;20166;-60
2022/02/09 15:33:34;;;;;;;8.80;6.80;;;10.70;99.90;;;;;;5024685;28;20033;-60
2022/02/09 15:36:12;;;;;;;8.65;7.03;;;10.60;99.90;;;;;;5045770;28;20024;-60
2022/02/09 15:38:45;;;;;;;9.18;7.57;;;10.60;99.90;;;;;;5062886;28;20029;-60
2022/02/09 15:41:26;;;;;;;10.68;8.35;;;10.60;99.90;;;;;;5071482;28;20021;-60
2022/02/09 15:56:16;;;;;;;11.18;7.32;;;10.60;99.90;;;;;;5071981;28;20384;-59
2022/02/09 16:10:48;;;;;;;;;;;10.60;99.90;;;;;;5030113;28;20429;-59
2022/02/09 16:22:38;;;;;;;7.95;6.70;;;10.50;99.90;;;;;;5069281;28;20029;-60
2022/02/09 16:44:16;;;;;;;5.50;4.72;;;10.50;99.90;;;;;;5075445;28;20016;-60
2022/02/09 16:44:54;;;;;;;7.88;5.65;;;10.60;99.90;;;;;;5076246;28;20119;-60
2022/02/09 16:47:42;;;;;;;7.30;6.50;;;10.60;99.90;;;;;;5074298;28;20126;-60
2022/02/09 16:50:10;;;;;;;7.97;6.70;;;10.60;99.90;;;;;;5075989;28;20036;-60
2022/02/09 16:52:54;;;;;;;9.07;7.35;;;10.60;99.90;;;;;;5076181;28;20100;-60
2022/02/09 17:19:39;;;;;;;7.93;6.43;;;10.40;99.90;;;;;;5076011;28;20107;-59
2022/02/09 17:22:06;;;;;;;8.60;6.82;;;10.40;99.90;;;;;;5075363;28;20103;-59
2022/02/09 17:24:32;;;;;;;7.10;6.15;;;10.40;99.90;;;;;;5074868;28;20028;-60
2022/02/09 17:26:57;;;;;;;6.35;5.30;;;10.40;99.90;;;;;;5067041;28;20384;-59
2022/02/09 17:29:35;;;;;;;6.72;5.70;;;10.40;99.90;;;;;;5073071;28;20476;-60
2022/02/09 17:32:47;;;;;;;7.38;5.82;;;10.40;99.90;;;;;;5073515;28;20480;-60
2022/02/09 17:35:35;;;;;;;6.80;5.97;;;10.50;99.90;;;;;;5046537;28;20139;-60
2022/02/09 17:53:24;;;;;;;11.05;8.85;;;10.30;99.90;;;;;;5066451;28;20040;-60
2022/02/09 17:58:19;;;;;;;9.73;7.95;;;10.20;99.90;;;;;;5074925;28;20485;-60
2022/02/09 18:00:50;;;;;;;;;;;10.30;99.90;;;;;;5075195;28;20070;-59
2022/02/09 18:03:16;;;;;;;9.00;7.97;;;10.20;99.90;;;;;;5089935;28;19923;-60
2022/02/09 18:05:49;;;;;;;8.77;7.18;;;10.20;99.90;;;;;;5089344;28;20016;-59
2022/02/09 18:08:21;;;;;;;10.40;7.80;;;10.20;99.90;;;;;;5070741;28;20358;-59
2022/02/09 18:11:43;;;;;;;8.93;7.38;;;10.20;99.90;;;;;;5072918;28;20709;-60
2022/02/09 18:14:47;;;;;;;9.02;7.38;;;10.30;99.90;;;;;;5031348;28;20025;-60
2022/02/09 18:25:15;;;;;;;8.48;7.18;;;10.20;99.90;;;;;;5016772;28;20072;-60
2022/02/09 18:30:55;;;;;;;11.48;7.68;;;10.20;99.90;;;;;;5072859;28;20017;-60
2022/02/09 18:33:41;;;;;;;8.63;7.55;;;10.30;99.90;;;;;;5070507;28;20370;-59
2022/02/09 18:44:29;;;;;;;;;;;10.30;99.90;;;;;;5069983;28;20824;-59
2022/02/09 19:03:35;;;;;;;9.32;7.88;;;10.20;99.90;;;;;;5069117;28;20710;-59
2022/02/09 19:06:15;;;;;;;8.90;7.75;;;10.20;99.90;;;;;;5050608;28;20032;-60
2022/02/09 19:19:32;;;;;;;9.40;7.68;;;10.10;99.90;;;;;;5069515;28;20028;-59
2022/02/09 19:30:34;;;;;;;11.90;10.70;;;9.90;99.90;;;;;;5069879;28;20036;-59
2022/02/09 19:48:40;;;;;;;11.43;8.95;;;9.70;99.90;;;;;;5068188;28;20020;-59
2022/02/09 19:51:20;;;;;;;10.85;8.88;;;9.70;99.90;;;;;;5061859;28;20469;-59
2022/02/09 19:54:06;;;;;;;11.95;10.32;;;9.70;99.90;;;;;;5063260;28;20029;-60
2022/02/09 19:56:31;;;;;;;12.32;9.00;;;9.70;99.90;;;;;;5070388;28;20468;-59
2022/02/09 19:59:01;;;;;;;10.48;9.25;;;9.70;99.90;;;;;;5069912;28;20040;-60
2022/02/09 20:01:33;;;;;;;11.20;9.50;;;9.70;99.90;;;;;;5069382;28;20028;-60
2022/02/09 20:03:59;;;;;;;12.07;9.15;;;9.70;99.90;;;;;;5066712;28;20057;-59
2022/02/09 20:06:24;;;;;;;11.50;9.27;;;9.70;99.90;;;;;;5068562;28;20067;-60
2022/02/09 20:08:50;;;;;;;11.75;9.35;;;9.70;99.90;;;;;;5068496;28;20021;-60
2022/02/09 20:11:17;;;;;;;12.70;10.18;;;9.70;99.90;;;;;;5069166;28;20488;-59
2022/02/09 20:13:44;;;;;;;11.70;9.80;;;9.70;99.90;;;;;;5068460;28;20032;-60
2022/02/09 20:16:10;;;;;;;10.77;9.23;;;9.70;99.90;;;;;;5068323;28;20027;-59
2022/02/09 20:18:36;;;;;;;11.60;9.23;;;9.60;99.90;;;;;;5068705;28;20162;-59
2022/02/09 20:21:03;;;;;;;11.27;9.68;;;9.70;99.90;;;;;;5069322;28;20139;-59
2022/02/09 20:23:30;;;;;;;12.63;9.40;;;9.70;99.90;;;;;;5068692;28;20090;-60
2022/02/09 20:25:58;;;;;;;12.38;10.10;;;9.60;99.90;;;;;;5068447;28;20406;-60
2022/02/09 20:28:23;;;;;;;12.20;10.32;;;9.60;99.90;;;;;;5068560;28;20707;-60
2022/02/09 20:30:57;;;;;;;12.52;10.07;;;9.60;99.90;;;;;;5068350;28;20032;-60
2022/02/09 20:33:29;;;;;;;13.60;10.40;;;9.60;99.90;;;;;;5067109;28;20127;-59
2022/02/09 20:35:55;;;;;;;13.57;10.57;;;9.60;99.90;;;;;;5069493;28;20047;-59
2022/02/09 20:38:25;;;;;;;13.90;10.88;;;9.60;99.90;;;;;;5069566;28;20489;-59
2022/02/09 20:41:04;;;;;;;12.90;11.18;;;9.60;99.90;;;;;;5066866;28;20400;-59
2022/02/09 20:43:33;;;;;;;14.37;10.47;;;9.60;99.90;;;;;;5067291;28;20399;-59
2022/02/09 20:46:04;;;;;;;13.63;10.82;;;9.60;99.90;;;;;;5069058;28;20045;-59
2022/02/09 20:48:29;;;;;;;14.23;11.75;;;9.60;99.90;;;;;;5067790;28;20032;-59
2022/02/09 20:50:57;;;;;;;20.77;15.68;;;9.50;99.90;;;;;;5068320;28;20112;-59
2022/02/09 20:53:24;;;;;;;24.05;18.85;;;9.50;99.90;;;;;;5067741;28;20392;-59
2022/02/09 20:55:50;;;;;;;26.80;21.55;;;9.40;99.90;;;;;;5068259;28;20027;-59
2022/02/09 20:58:17;;;;;;;25.55;21.35;;;9.30;99.90;;;;;;5067897;28;20029;-59
2022/02/09 21:06:22;;;;;;;24.95;20.38;;;9.10;99.90;;;;;;5067890;28;20411;-59
2022/02/09 21:09:01;;;;;;;22.27;18.30;;;9.10;99.90;;;;;;5065237;28;20100;-59
2022/02/09 21:16:53;;;;;;;19.63;15.65;;;9.00;99.90;;;;;;5068541;28;20400;-59
2022/02/09 21:19:36;;;;;;;19.95;15.55;;;9.00;99.90;;;;;;5068879;28;20619;-59
2022/02/09 21:46:57;;;;;;;14.55;12.05;;;9.00;99.90;;;;;;5070024;28;20029;-60
2022/02/09 21:57:57;;;;;;;14.30;11.80;;;9.10;99.90;;;;;;5072241;28;20115;-60
2022/02/09 22:00:13;;;;;;;15.75;12.40;;;9.20;99.90;;;;;;5058238;28;20118;-59
2022/02/09 22:16:29;;;;;;;15.35;12.77;;;9.00;99.90;;;;;;5071092;28;20077;-59
2022/02/09 22:31:41;;;;;;;28.10;22.77;;;9.00;99.90;;;;;;5069732;28;20029;-59
2022/02/09 22:34:45;;;;;;;29.92;23.42;;;9.00;99.90;;;;;;5068943;28;20052;-59
2022/02/09 22:55:38;;;;;;;18.00;13.82;;;9.10;99.90;;;;;;5066131;28;20040;-59
2022/02/09 22:58:06;;;;;;;19.45;14.35;;;9.20;99.90;;;;;;5069924;28;20035;-59
2022/02/09 23:00:46;;;;;;;18.88;13.20;;;9.20;99.90;;;;;;5068314;28;20052;-59
2022/02/09 23:03:17;;;;;;;16.65;13.13;;;9.20;99.90;;;;;;5068980;28;20024;-59
2022/02/09 23:05:59;;;;;;;18.38;14.10;;;9.20;99.90;;;;;;5069804;28;20473;-59
2022/02/09 23:11:32;;;;;;;16.35;13.23;;;9.30;99.90;;;;;;5069439;28;20021;-59
2022/02/09 23:14:06;;;;;;;17.50;12.70;;;9.30;99.90;;;;;;5069308;28;20028;-59
2022/02/09 23:20:06;;;;;;;16.92;12.57;;;9.30;99.90;;;;;;5070231;28;20399;-59
2022/02/09 23:22:49;;;;;;;18.25;12.88;;;9.30;99.90;;;;;;5071103;28;20549;-59
2022/02/09 23:57:34;;;;;;;19.83;14.30;;;9.30;99.90;;;;;;5071403;28;20048;-59
